createdAt,value
2017-11-06T00:00:53.108Z,88.57
2017-11-06T00:03:20.667Z,89.00
2017-11-06T00:05:48.216Z,88.80
2017-11-06T00:08:15.879Z,89.14
2017-11-06T00:10:43.450Z,89.33
2017-11-06T00:13:11.035Z,88.87
2017-11-06T00:15:38.636Z,88.71
2017-11-06T00:18:06.604Z,88.96
2017-11-06T00:20:35.047Z,89.34
2017-11-06T00:23:02.700Z,89.38
2017-11-06T00:25:30.262Z,90.01
2017-11-06T00:27:57.832Z,89.74
2017-11-06T00:30:25.530Z,89.92
2017-11-06T00:32:53.087Z,90.15
2017-11-06T00:35:21.988Z,90.23
2017-11-06T00:37:49.677Z,90.25
2017-11-06T00:40:17.267Z,90.25
2017-11-06T00:42:44.845Z,90.00
2017-11-06T00:45:12.997Z,90.07
2017-11-06T00:47:40.558Z,90.53
2017-11-06T00:50:08.276Z,90.85
2017-11-06T00:52:35.867Z,90.98
2017-11-06T00:55:03.435Z,91.14
2017-11-06T00:57:31.027Z,91.24
2017-11-06T00:59:58.630Z,91.44
2017-11-06T01:02:26.258Z,91.32
2017-11-06T01:04:53.892Z,91.07
2017-11-06T01:07:21.485Z,91.44
2017-11-06T01:09:49.065Z,91.14
2017-11-06T01:12:16.748Z,91.59
2017-11-06T01:14:44.343Z,91.65
2017-11-06T01:17:11.950Z,91.11
2017-11-06T01:19:39.621Z,91.14
2017-11-06T01:22:07.198Z,91.22
2017-11-06T01:24:34.754Z,90.58
2017-11-06T01:27:02.524Z,90.41
2017-11-06T01:29:30.144Z,90.67
2017-11-06T01:31:57.716Z,91.11
2017-11-06T01:34:25.325Z,90.59
2017-11-06T01:36:52.898Z,90.42
2017-11-06T01:39:20.804Z,90.57
2017-11-06T01:41:48.431Z,90.52
2017-11-06T01:44:16.034Z,90.47
2017-11-06T01:46:43.763Z,89.87
2017-11-06T01:49:11.762Z,89.72
2017-11-06T01:51:40.204Z,89.22
2017-11-06T01:54:07.827Z,89.20
2017-11-06T01:56:38.270Z,89.76
2017-11-06T01:59:05.869Z,89.76
2017-11-06T02:01:33.529Z,89.51
2017-11-06T02:04:01.115Z,89.30
2017-11-06T02:06:28.680Z,89.61
2017-11-06T02:08:56.422Z,89.15
2017-11-06T02:11:24.359Z,89.75
2017-11-06T02:13:52.029Z,89.96
2017-11-06T02:16:19.677Z,90.39
2017-11-06T02:18:47.252Z,90.70
2017-11-06T02:21:14.881Z,90.38
2017-11-06T02:23:42.471Z,90.62
2017-11-06T02:26:10.094Z,90.33
2017-11-06T02:28:37.731Z,89.90
2017-11-06T02:31:05.495Z,89.91
2017-11-06T02:33:33.108Z,89.76
2017-11-06T02:36:00.690Z,90.08
2017-11-06T02:38:28.270Z,90.21
2017-11-06T02:40:55.974Z,90.16
2017-11-06T02:43:23.608Z,90.01
2017-11-06T02:45:51.218Z,89.64
2017-11-06T02:48:18.925Z,90.21
2017-11-06T02:50:46.500Z,89.93
2017-11-06T02:53:14.057Z,90.22
2017-11-06T02:55:41.639Z,90.29
2017-11-06T02:58:09.583Z,90.58
2017-11-06T03:00:37.617Z,90.71
2017-11-06T03:03:06.249Z,91.01
2017-11-06T03:05:34.037Z,91.18
2017-11-06T03:08:01.605Z,91.54
2017-11-06T03:10:29.305Z,91.55
2017-11-06T03:12:56.886Z,91.47
2017-11-06T03:15:24.657Z,91.17
2017-11-06T03:17:52.261Z,90.75
2017-11-06T03:20:22.965Z,90.51
2017-11-06T03:22:50.655Z,90.30
2017-11-06T03:25:19.982Z,90.26
2017-11-06T03:27:49.623Z,90.17
2017-11-06T03:30:17.472Z,90.68
2017-11-06T03:32:45.085Z,91.01
2017-11-06T03:35:13.111Z,91.26
2017-11-06T03:37:40.696Z,91.00
2017-11-06T03:40:08.283Z,91.16
2017-11-06T03:42:35.857Z,91.47
2017-11-06T03:45:03.606Z,91.98
2017-11-06T03:47:31.146Z,91.83
2017-11-06T03:49:58.711Z,91.87
2017-11-06T03:52:26.245Z,92.00
2017-11-06T03:54:53.806Z,92.02
2017-11-06T03:57:22.010Z,91.88
2017-11-06T03:59:49.582Z,91.90
2017-11-06T04:02:17.144Z,91.41
2017-11-06T04:04:44.753Z,91.66
2017-11-06T04:07:12.585Z,91.80
2017-11-06T04:09:40.185Z,91.90
2017-11-06T04:12:07.788Z,91.94
2017-11-06T04:14:35.330Z,92.16
2017-11-06T04:17:02.938Z,92.48
2017-11-06T04:19:30.866Z,92.49
2017-11-06T04:21:58.433Z,92.29
2017-11-06T04:24:26.036Z,92.21
2017-11-06T04:26:53.610Z,92.28
2017-11-06T04:29:21.247Z,91.73
2017-11-06T04:31:48.859Z,92.06
2017-11-06T04:34:23.357Z,92.00
2017-11-06T04:36:50.937Z,92.12
2017-11-06T04:39:18.494Z,91.76
2017-11-06T04:41:46.128Z,91.79
2017-11-06T04:44:13.687Z,91.64
2017-11-06T04:46:41.267Z,91.03
2017-11-06T04:49:09.084Z,91.14
2017-11-06T04:51:36.765Z,91.04
2017-11-06T04:54:04.679Z,90.83
2017-11-06T04:56:32.344Z,91.13
2017-11-06T04:58:59.895Z,91.36
2017-11-06T05:01:27.453Z,91.71
2017-11-06T05:03:55.141Z,92.60
2017-11-06T05:06:22.732Z,92.42
2017-11-06T05:08:50.372Z,91.82
2017-11-06T05:11:17.956Z,92.08
2017-11-06T05:13:45.510Z,91.98
2017-11-06T05:16:13.122Z,91.58
2017-11-06T05:18:40.735Z,91.75
2017-11-06T05:21:08.634Z,92.45
2017-11-06T05:23:36.297Z,92.65
2017-11-06T05:26:04.004Z,92.79
2017-11-06T05:28:31.597Z,92.96
2017-11-06T05:30:59.203Z,93.40
2017-11-06T05:33:26.985Z,93.22
2017-11-06T05:35:54.589Z,93.12
2017-11-06T05:38:24.349Z,92.79
2017-11-06T05:40:51.952Z,92.79
2017-11-06T05:43:19.955Z,93.12
2017-11-06T05:45:47.552Z,93.09
2017-11-06T05:48:15.166Z,93.02
2017-11-06T05:50:42.733Z,93.16
2017-11-06T05:53:11.261Z,93.10
2017-11-06T05:55:38.982Z,93.12
2017-11-06T06:00:38.346Z,93.26
2017-11-06T06:03:05.993Z,93.34
2017-11-06T06:05:34.455Z,93.16
2017-11-06T06:08:02.018Z,92.66
2017-11-06T06:10:30.378Z,92.78
2017-11-06T06:12:57.962Z,93.07
2017-11-06T06:15:25.570Z,92.15
2017-11-06T06:17:53.193Z,92.39
2017-11-06T06:20:21.005Z,92.15
2017-11-06T06:22:48.647Z,92.52
2017-11-06T06:25:16.538Z,92.35
2017-11-06T06:27:44.151Z,92.43
2017-11-06T06:30:11.930Z,92.44
2017-11-06T06:32:39.517Z,92.35
2017-11-06T06:35:07.210Z,91.88
2017-11-06T06:37:36.342Z,92.01
2017-11-06T06:40:03.945Z,91.44
2017-11-06T06:42:31.519Z,91.54
2017-11-06T06:44:59.077Z,91.74
2017-11-06T06:47:29.227Z,91.58
2017-11-06T06:49:56.844Z,91.14
2017-11-06T06:52:24.590Z,91.05
2017-11-06T06:54:52.207Z,91.05
2017-11-06T06:57:19.782Z,91.05
2017-11-06T06:59:47.384Z,90.67
2017-11-06T07:02:15.022Z,90.70
2017-11-06T07:04:43.388Z,90.79
2017-11-06T07:07:13.865Z,90.47
2017-11-06T07:09:41.555Z,89.94
2017-11-06T07:12:09.134Z,89.93
2017-11-06T07:14:37.921Z,90.69
2017-11-06T07:17:05.739Z,90.30
2017-11-06T07:19:34.064Z,90.19
2017-11-06T07:22:01.683Z,89.67
2017-11-06T07:24:29.248Z,90.03
2017-11-06T07:27:01.022Z,89.69
2017-11-06T07:29:28.640Z,89.81
2017-11-06T07:31:56.212Z,89.93
2017-11-06T07:34:23.791Z,89.82
2017-11-06T07:36:51.372Z,90.21
2017-11-06T07:39:19.600Z,90.23
2017-11-06T07:41:47.265Z,90.19
2017-11-06T07:44:14.859Z,90.65
2017-11-06T07:46:42.428Z,90.60
2017-11-06T07:49:11.365Z,90.71
2017-11-06T07:51:39.718Z,90.99
2017-11-06T07:54:07.336Z,90.97
2017-11-06T07:56:35.028Z,91.09
2017-11-06T07:59:02.607Z,90.77
2017-11-06T08:01:30.195Z,90.48
2017-11-06T08:03:57.830Z,91.11
2017-11-06T08:06:25.443Z,90.74
2017-11-06T08:08:53.014Z,91.17
2017-11-06T08:11:20.670Z,90.84
2017-11-06T08:13:48.301Z,90.60
2017-11-06T08:16:15.887Z,90.80
2017-11-06T08:18:43.511Z,90.67
2017-11-06T08:21:11.117Z,90.87
2017-11-06T08:23:38.682Z,90.76
2017-11-06T08:26:06.310Z,90.90
2017-11-06T08:28:33.853Z,91.00
2017-11-06T08:31:01.432Z,90.98
2017-11-06T08:33:29.439Z,91.35
2017-11-06T08:35:57.067Z,91.16
2017-11-06T08:38:24.617Z,90.94
2017-11-06T08:40:52.196Z,90.74
2017-11-06T08:43:19.774Z,90.89
2017-11-06T08:45:47.366Z,90.57
2017-11-06T08:48:15.110Z,90.67
2017-11-06T08:50:42.661Z,90.20
2017-11-06T08:53:10.689Z,89.56
2017-11-06T08:55:38.350Z,88.90
2017-11-06T08:58:05.913Z,88.61
2017-11-06T09:00:33.478Z,89.06
2017-11-06T09:03:01.098Z,88.29
2017-11-06T09:05:28.667Z,89.36
2017-11-06T09:07:56.433Z,88.69
2017-11-06T09:10:23.994Z,88.14
2017-11-06T09:12:51.559Z,88.29
2017-11-06T09:15:19.143Z,88.50
2017-11-06T09:17:46.718Z,88.20
2017-11-06T09:20:14.346Z,88.19
2017-11-06T09:22:41.936Z,87.92
2017-11-06T09:25:09.641Z,87.28
2017-11-06T09:27:37.214Z,87.15
2017-11-06T09:30:04.810Z,87.13
2017-11-06T09:32:32.376Z,87.71
2017-11-06T09:34:59.954Z,88.13
2017-11-06T09:37:28.317Z,88.32
2017-11-06T09:39:55.959Z,88.44
2017-11-06T09:42:23.737Z,88.59
2017-11-06T09:44:51.345Z,88.75
2017-11-06T09:47:18.915Z,88.73
2017-11-06T09:49:46.483Z,89.40
2017-11-06T09:52:14.104Z,89.62
2017-11-06T09:54:41.706Z,89.24
2017-11-06T09:57:09.599Z,89.06
2017-11-06T09:59:37.202Z,89.05
2017-11-06T10:02:04.779Z,89.62
2017-11-06T10:04:32.318Z,88.99
2017-11-06T10:06:59.906Z,89.03
2017-11-06T10:09:27.602Z,87.98
2017-11-06T10:11:55.243Z,88.41
2017-11-06T10:14:24.130Z,88.10
2017-11-06T10:16:51.701Z,88.08
2017-11-06T10:19:19.276Z,88.07
2017-11-06T10:21:47.241Z,88.33
2017-11-06T10:24:15.237Z,88.48
2017-11-06T10:26:42.866Z,88.53
2017-11-06T10:29:10.469Z,88.46
2017-11-06T10:31:38.022Z,88.75
2017-11-06T10:34:05.612Z,90.17
2017-11-06T10:36:33.211Z,88.62
2017-11-06T10:39:00.816Z,90.01
2017-11-06T10:41:29.422Z,89.19
2017-11-06T10:43:57.515Z,89.99
2017-11-06T10:46:25.755Z,90.37
2017-11-06T10:48:53.345Z,90.21
2017-11-06T10:51:21.057Z,90.36
2017-11-06T10:53:48.657Z,89.45
2017-11-06T10:56:16.411Z,89.83
2017-11-06T10:58:44.145Z,89.02
2017-11-06T11:01:11.712Z,90.32
2017-11-06T11:03:40.178Z,89.40
2017-11-06T11:06:07.805Z,89.28
2017-11-06T11:08:35.384Z,89.90
2017-11-06T11:11:03.028Z,89.92
2017-11-06T11:13:31.109Z,90.22
2017-11-06T11:15:58.731Z,89.58
2017-11-06T11:18:26.318Z,89.62
2017-11-06T11:20:53.909Z,89.93
2017-11-06T11:23:21.481Z,89.93
2017-11-06T11:25:52.706Z,89.15
2017-11-06T11:28:20.613Z,89.16
2017-11-06T11:30:48.189Z,89.33
2017-11-06T11:33:15.795Z,89.07
2017-11-06T11:35:43.427Z,88.70
2017-11-06T11:38:11.844Z,89.24
2017-11-06T11:40:39.570Z,89.72
2017-11-06T11:43:10.773Z,89.37
2017-11-06T11:45:38.506Z,89.58
2017-11-06T11:48:08.889Z,89.04
2017-11-06T11:50:36.499Z,89.21
2017-11-06T11:53:04.105Z,88.37
2017-11-06T11:55:32.885Z,88.88
2017-11-06T11:58:00.880Z,88.58
2017-11-06T12:00:28.796Z,88.86
2017-11-06T12:02:56.350Z,88.38
2017-11-06T12:05:24.474Z,87.94
2017-11-06T12:07:52.058Z,88.05
2017-11-06T12:10:19.800Z,88.11
2017-11-06T12:12:47.633Z,88.66
2017-11-06T12:15:15.189Z,88.44
2017-11-06T12:17:42.828Z,86.96
2017-11-06T12:20:10.431Z,87.51
2017-11-06T12:22:38.877Z,88.48
2017-11-06T12:25:06.809Z,87.35
2017-11-06T12:27:35.341Z,87.91
2017-11-06T12:30:02.939Z,88.45
2017-11-06T12:32:30.527Z,87.63
2017-11-06T12:34:58.237Z,88.00
2017-11-06T12:37:26.199Z,89.03
2017-11-06T12:39:53.759Z,89.13
2017-11-06T12:42:22.374Z,88.73
2017-11-06T12:44:50.040Z,87.70
2017-11-06T12:47:17.622Z,87.71
2017-11-06T12:49:45.220Z,88.42
2017-11-06T12:52:12.768Z,88.54
2017-11-06T12:54:40.387Z,88.54
2017-11-06T12:57:08.064Z,87.97
2017-11-06T12:59:35.622Z,88.90
2017-11-06T13:02:03.224Z,88.45
2017-11-06T13:04:30.810Z,86.46
2017-11-06T13:06:58.360Z,87.81
2017-11-06T13:09:25.962Z,88.08
2017-11-06T13:11:53.598Z,88.97
2017-11-06T13:14:21.461Z,89.02
2017-11-06T13:16:49.219Z,88.31
2017-11-06T13:19:16.839Z,88.41
2017-11-06T13:21:44.426Z,88.79
2017-11-06T13:24:12.016Z,88.98
2017-11-06T13:26:39.701Z,87.33
2017-11-06T13:29:07.780Z,87.83
2017-11-06T13:31:35.423Z,88.05
2017-11-06T13:34:03.030Z,87.56
2017-11-06T13:36:30.599Z,88.37
2017-11-06T13:38:58.135Z,88.02
2017-11-06T13:41:25.758Z,87.63
2017-11-06T13:43:53.371Z,89.06
2017-11-06T13:46:21.713Z,88.31
2017-11-06T13:48:50.601Z,88.18
2017-11-06T13:51:18.167Z,88.28
2017-11-06T13:53:45.725Z,88.06
2017-11-06T13:56:13.338Z,88.56
2017-11-06T13:58:40.979Z,88.05
2017-11-06T14:01:08.581Z,88.69
2017-11-06T14:03:40.288Z,88.29
2017-11-06T14:06:07.880Z,89.49
2017-11-06T14:08:35.661Z,89.04
2017-11-06T14:11:03.217Z,88.24
2017-11-06T14:13:30.770Z,88.76
2017-11-06T14:15:58.452Z,88.96
2017-11-06T14:18:26.490Z,89.00
2017-11-06T14:20:54.143Z,89.70
2017-11-06T14:23:21.818Z,89.92
2017-11-06T14:25:49.465Z,89.64
2017-11-06T14:28:17.236Z,89.34
2017-11-06T14:30:44.965Z,89.00
2017-11-06T14:33:12.584Z,89.24
2017-11-06T14:35:40.356Z,89.88
2017-11-06T14:38:07.980Z,89.77
2017-11-06T14:40:35.821Z,89.76
2017-11-06T14:43:03.475Z,90.51
2017-11-06T14:45:31.156Z,90.81
2017-11-06T14:47:58.713Z,90.86
2017-11-06T14:50:26.346Z,90.53
2017-11-06T14:52:53.943Z,90.55
2017-11-06T14:55:21.891Z,90.61
2017-11-06T14:57:49.499Z,90.62
2017-11-06T15:00:17.347Z,90.93
2017-11-06T15:02:44.930Z,91.54
2017-11-06T15:05:14.041Z,91.55
2017-11-06T15:07:44.128Z,91.73
2017-11-06T15:10:11.708Z,92.06
2017-11-06T15:12:44.817Z,92.57
2017-11-06T15:15:13.833Z,92.78
2017-11-06T15:17:42.012Z,92.95
2017-11-06T15:20:09.613Z,92.79
2017-11-06T15:22:40.078Z,93.24
2017-11-06T15:25:07.806Z,93.21
2017-11-06T15:27:36.712Z,93.26
2017-11-06T15:30:04.314Z,93.32
2017-11-06T15:32:31.933Z,93.26
2017-11-06T15:34:59.612Z,93.67
2017-11-06T15:37:27.227Z,93.85
2017-11-06T15:39:54.780Z,94.23
2017-11-06T15:42:22.372Z,94.02
2017-11-06T15:44:53.185Z,93.89
2017-11-06T15:47:21.283Z,94.04
2017-11-06T15:49:49.875Z,94.31
2017-11-06T15:52:17.617Z,94.28
2017-11-06T15:54:47.375Z,94.62
2017-11-06T15:57:17.011Z,95.01
2017-11-06T15:59:44.616Z,95.18
2017-11-06T16:02:12.202Z,95.29
2017-11-06T16:04:39.793Z,95.65
2017-11-06T16:07:10.189Z,95.83
2017-11-06T16:09:37.766Z,95.91
2017-11-06T16:12:05.393Z,95.89
2017-11-06T16:14:32.991Z,95.75
2017-11-06T16:17:00.565Z,95.60
2017-11-06T16:19:28.171Z,95.51
2017-11-06T16:21:55.779Z,95.53
2017-11-06T16:24:23.388Z,95.53
2017-11-06T16:26:51.014Z,95.44
2017-11-06T16:29:18.629Z,95.46
2017-11-06T16:31:46.328Z,95.62
2017-11-06T16:34:14.045Z,95.82
2017-11-06T16:36:41.588Z,95.80
2017-11-06T16:39:09.532Z,95.83
2017-11-06T16:41:37.222Z,95.63
2017-11-06T16:44:04.830Z,95.72
2017-11-06T16:46:32.384Z,95.90
2017-11-06T16:49:00.000Z,96.11
2017-11-06T16:51:28.188Z,96.08
2017-11-06T16:53:55.746Z,96.22
2017-11-06T16:56:23.963Z,96.45
2017-11-06T16:58:51.528Z,96.34
2017-11-06T17:01:19.147Z,96.27
2017-11-06T17:03:46.992Z,95.95
2017-11-06T17:06:14.629Z,95.99
2017-11-06T17:08:42.260Z,95.98
2017-11-06T17:11:10.248Z,96.22
2017-11-06T17:13:37.992Z,96.43
2017-11-06T17:16:05.565Z,96.47
2017-11-06T17:18:33.165Z,96.47
2017-11-06T17:21:00.794Z,96.52
2017-11-06T17:23:29.061Z,96.73
2017-11-06T17:25:56.706Z,96.78
2017-11-06T17:28:24.384Z,96.92
2017-11-06T17:30:52.078Z,96.84
2017-11-06T17:33:19.668Z,96.82
2017-11-06T17:35:47.237Z,96.77
2017-11-06T17:38:14.861Z,96.88
2017-11-06T17:40:42.482Z,96.51
2017-11-06T17:43:10.401Z,96.54
2017-11-06T17:45:38.063Z,96.50
2017-11-06T17:48:05.680Z,96.38
2017-11-06T17:50:33.377Z,96.30
2017-11-06T17:53:00.945Z,96.38
2017-11-06T17:55:29.441Z,96.67
2017-11-06T17:57:57.326Z,96.66
2017-11-06T18:00:24.899Z,96.78
2017-11-06T18:02:52.545Z,97.03
2017-11-06T18:05:20.535Z,97.21
2017-11-06T18:07:48.150Z,97.22
2017-11-06T18:10:15.731Z,97.30
2017-11-06T18:12:43.407Z,97.32
2017-11-06T18:15:11.232Z,97.35
2017-11-06T18:17:39.027Z,97.29
2017-11-06T18:20:06.725Z,97.21
2017-11-06T18:22:34.326Z,97.20
2017-11-06T18:25:01.963Z,97.21
2017-11-06T18:27:29.628Z,97.19
2017-11-06T18:29:57.222Z,97.20
2017-11-06T18:32:24.811Z,97.38
2017-11-06T18:34:52.431Z,97.37
2017-11-06T18:37:20.286Z,97.45
2017-11-06T18:39:47.986Z,97.46
2017-11-06T18:42:15.766Z,97.49
2017-11-06T18:44:43.339Z,97.30
2017-11-06T18:47:11.440Z,97.31
2017-11-06T18:49:39.688Z,97.30
2017-11-06T18:52:07.429Z,97.37
2017-11-06T18:54:35.150Z,97.26
2017-11-06T18:57:03.064Z,97.24
2017-11-06T18:59:31.451Z,97.19
2017-11-06T19:02:01.008Z,97.19
2017-11-06T19:04:28.851Z,96.98
2017-11-06T19:06:56.569Z,97.05
2017-11-06T19:09:30.837Z,96.98
2017-11-06T19:11:58.724Z,96.90
2017-11-06T19:14:26.321Z,96.93
2017-11-06T19:16:53.886Z,97.03
2017-11-06T19:22:11.492Z,96.98
2017-11-06T19:24:40.489Z,97.01
2017-11-06T19:27:08.530Z,97.04
2017-11-06T19:29:37.098Z,96.95
2017-11-06T19:32:04.826Z,96.85
2017-11-06T19:34:32.617Z,96.57
2017-11-06T19:37:02.830Z,96.69
2017-11-06T19:39:30.445Z,96.85
2017-11-06T19:41:59.809Z,97.02
2017-11-06T19:44:27.376Z,97.16
2017-11-06T19:49:45.401Z,97.16
2017-11-06T19:52:12.981Z,97.40
2017-11-06T19:54:40.641Z,97.42
2017-11-06T19:57:09.230Z,97.58
2017-11-06T19:59:37.009Z,97.71
2017-11-06T20:02:04.675Z,97.73
2017-11-06T20:04:32.289Z,97.82
2017-11-06T20:07:00.010Z,97.81
2017-11-06T20:09:27.610Z,97.79
2017-11-06T20:11:55.188Z,97.77
2017-11-06T20:14:23.184Z,97.65
2017-11-06T20:16:50.736Z,97.37
2017-11-06T20:19:18.363Z,97.09
2017-11-06T20:21:45.994Z,97.08
2017-11-06T20:24:13.613Z,97.08
2017-11-06T20:26:41.201Z,97.06
2017-11-06T20:29:09.247Z,96.98
2017-11-06T20:31:36.882Z,97.00
2017-11-06T20:34:04.443Z,96.34
2017-11-06T20:36:32.013Z,96.58
2017-11-06T20:38:59.605Z,96.68
2017-11-06T20:41:27.195Z,96.80
2017-11-06T20:43:54.793Z,96.90
2017-11-06T20:46:22.531Z,95.67
2017-11-06T20:48:50.156Z,94.99
2017-11-06T20:51:19.773Z,94.53
2017-11-06T20:53:47.436Z,93.90
2017-11-06T20:56:15.294Z,94.37
2017-11-06T20:58:42.927Z,94.61
2017-11-06T21:01:10.673Z,95.17
2017-11-06T21:03:38.221Z,95.30
2017-11-06T21:06:06.697Z,94.40
2017-11-06T21:08:34.300Z,93.67
2017-11-06T21:11:01.986Z,93.29
2017-11-06T21:13:29.609Z,93.41
2017-11-06T21:15:57.218Z,93.30
2017-11-06T21:18:24.852Z,93.46
2017-11-06T21:20:52.449Z,94.03
2017-11-06T21:23:20.701Z,94.02
2017-11-06T21:25:48.337Z,93.75
2017-11-06T21:28:16.142Z,93.49
2017-11-06T21:30:49.442Z,93.35
2017-11-06T21:33:18.023Z,93.81
2017-11-06T21:35:45.653Z,94.35
2017-11-06T21:38:13.273Z,94.25
2017-11-06T21:40:40.885Z,94.01
2017-11-06T21:43:09.422Z,93.84
2017-11-06T21:45:37.257Z,93.79
2017-11-06T21:48:04.860Z,93.91
2017-11-06T21:50:33.906Z,93.74
2017-11-06T21:53:01.505Z,93.71
2017-11-06T21:55:29.136Z,93.71
2017-11-06T21:57:56.743Z,94.43
2017-11-06T22:00:24.386Z,95.13
2017-11-06T22:02:52.046Z,95.60
2017-11-06T22:05:19.622Z,96.00
2017-11-06T22:07:47.242Z,96.28
2017-11-06T22:10:14.892Z,96.30
2017-11-06T22:12:42.454Z,95.45
2017-11-06T22:15:10.972Z,94.58
2017-11-06T22:17:38.560Z,94.68
2017-11-06T22:20:06.264Z,95.12
2017-11-06T22:22:33.873Z,95.63
2017-11-06T22:25:01.436Z,95.56
2017-11-06T22:27:29.216Z,95.76
2017-11-06T22:29:56.868Z,95.89
2017-11-06T22:32:24.484Z,96.03
2017-11-06T22:34:52.072Z,96.21
2017-11-06T22:37:20.148Z,96.20
2017-11-06T22:39:47.776Z,96.12
2017-11-06T22:42:15.324Z,95.45
2017-11-06T22:44:42.956Z,95.73
2017-11-06T22:47:10.549Z,95.75
2017-11-06T22:49:38.103Z,95.51
2017-11-06T22:52:05.677Z,95.91
2017-11-06T22:54:33.251Z,95.73
2017-11-06T22:57:00.846Z,95.89
2017-11-06T22:59:28.398Z,96.34
2017-11-06T23:01:58.713Z,96.63
2017-11-06T23:04:26.316Z,96.87
2017-11-06T23:06:55.237Z,96.95
2017-11-06T23:09:22.938Z,97.11
2017-11-06T23:11:50.571Z,97.06
2017-11-06T23:14:18.163Z,96.50
2017-11-06T23:16:45.732Z,96.56
2017-11-06T23:19:15.560Z,96.75
2017-11-06T23:21:45.532Z,96.93
2017-11-06T23:24:13.138Z,96.56
2017-11-06T23:26:40.744Z,96.83
2017-11-06T23:29:08.450Z,96.68
2017-11-06T23:31:36.366Z,96.71
2017-11-06T23:34:03.940Z,96.63
2017-11-06T23:36:33.351Z,96.61
2017-11-06T23:39:03.329Z,96.65
2017-11-06T23:41:30.985Z,96.78
2017-11-06T23:43:58.705Z,97.02
2017-11-06T23:46:26.259Z,97.20
2017-11-06T23:48:57.813Z,97.35
2017-11-06T23:51:25.581Z,97.49
2017-11-06T23:53:53.232Z,97.46
2017-11-06T23:56:20.866Z,97.45
2017-11-06T23:58:48.530Z,96.60
